.
WxDataArchive / Data Records for 2014-03-29
2014-03-28 March 2014 2014-03-30

Data Records for Saturday, 29 March 2014

Time	Temp	Chill	HIndex	Humid	Dewpt	 Wind 	HiWind	WindDir	Rain 	Barom
-----	----	-----	------	-----	-----	------	------	-------	-----	-----
00:00	34.7	34.7	34.7	84	30.4	3	7	90	0.00	30.168 
00:05	34.7	34.7	34.7	84	30.4	2	5	90	0.00	30.168 
00:10	34.9	34.9	34.9	84	30.6	2	5	90	0.00	30.168 
00:15	34.9	34.9	34.9	84	30.6	1	4	90	0.00	30.174 
00:20	34.9	34.9	34.9	84	30.6	2	5	90	0.00	30.174 
00:25	34.9	34.9	34.9	84	30.6	1	3	90	0.00	30.174 
00:30	34.9	34.9	34.9	84	30.6	0	2	90	0.00	30.171 
00:35	35.0	35.0	35.0	84	30.7	1	3	90	0.00	30.171 
00:40	35.0	35.0	35.0	84	30.7	1	3	90	0.00	30.171 
00:45	35.0	35.0	35.0	84	30.7	0	2	90	0.00	30.165 
00:50	35.2	35.2	35.2	84	30.9	0	2	90	0.00	30.165 
00:55	35.2	35.2	35.2	84	30.9	0	1	90	0.00	30.165 
01:00	35.2	35.2	35.2	84	30.9	0	2	90	0.00	30.159 
01:05	35.3	35.3	35.3	84	31.0	0	2	90	0.00	30.159 
01:10	35.3	35.3	35.3	84	31.0	0	1	90	0.00	30.159 
01:15	35.3	35.3	35.3	84	31.0	0	1	90	0.00	30.155 
01:20	35.3	35.3	35.3	84	31.0	0	1	90	0.00	30.155 
01:25	35.3	35.3	35.3	84	31.0	0	1	90	0.00	30.155 
01:30	35.3	35.3	35.3	84	31.0	0	2	90	0.00	30.154 
01:35	35.5	35.5	35.5	84	31.2	0	2	90	0.00	30.154 
01:40	35.5	35.5	35.5	84	31.2	0	0	---	0.00	30.154 
01:45	35.5	35.5	35.5	84	31.2	0	0	---	0.00	30.152 
01:50	35.5	35.5	35.5	84	31.2	0	0	---	0.00	30.152 
01:55	35.3	35.3	35.3	84	31.0	0	0	---	0.00	30.152 
02:00	35.3	35.3	35.3	84	31.0	0	0	---	0.00	30.142 
02:05	35.3	35.3	35.3	84	31.0	0	0	---	0.00	30.142 
02:10	35.3	35.3	35.3	84	31.0	0	1	90	0.00	30.142 
02:15	35.3	35.3	35.3	84	31.0	0	0	---	0.00	30.141 
02:20	35.3	35.3	35.3	84	31.0	0	1	90	0.00	30.141 
02:25	35.3	35.3	35.3	85	31.2	0	0	---	0.00	30.141 
02:30	35.3	35.3	35.3	85	31.2	0	0	---	0.00	30.142 
02:35	35.3	35.3	35.3	85	31.2	0	1	90	0.00	30.142 
02:40	35.3	35.3	35.3	85	31.2	0	1	90	0.00	30.142 
02:45	35.3	35.3	35.3	85	31.2	0	2	90	0.00	30.129 
02:50	35.3	35.3	35.3	85	31.2	0	1	90	0.00	30.129 
02:55	35.3	35.3	35.3	85	31.2	0	1	90	0.00	30.129 
03:00	35.3	35.3	35.3	85	31.2	0	1	90	0.00	30.109 
03:05	35.3	35.3	35.3	85	31.2	0	1	90	0.00	30.109 
03:10	35.3	35.3	35.3	85	31.2	0	0	---	0.00	30.109 
03:15	35.3	35.3	35.3	85	31.2	0	1	90	0.00	30.112 
03:20	35.5	35.5	35.5	85	31.4	0	1	90	0.00	30.112 
03:25	35.5	35.5	35.5	85	31.4	0	3	90	0.00	30.112 
03:30	35.5	35.5	35.5	85	31.4	0	2	90	0.00	30.110 
03:35	35.6	35.6	35.6	85	31.5	0	1	90	0.00	30.110 
03:40	35.6	35.6	35.6	85	31.5	0	2	90	0.00	30.110 
03:45	35.6	35.6	35.6	85	31.5	0	1	90	0.00	30.112 
03:50	35.6	35.6	35.6	85	31.5	0	1	90	0.00	30.112 
03:55	35.8	35.8	35.8	85	31.7	0	1	90	0.00	30.112 
04:00	35.8	35.8	35.8	85	31.7	0	3	90	0.00	30.111 
04:05	35.8	35.8	35.8	85	31.7	0	1	90	0.00	30.111 
04:10	35.8	35.8	35.8	85	31.7	0	1	90	0.00	30.111 
04:15	35.9	35.9	35.9	85	31.8	0	1	90	0.00	30.111 
04:20	35.9	35.9	35.9	85	31.8	0	0	---	0.00	30.111 
04:25	35.9	35.9	35.9	85	31.8	0	0	---	0.00	30.111 
04:30	35.9	35.9	35.9	85	31.8	0	1	90	0.00	30.102 
04:35	35.9	35.9	35.9	85	31.8	0	1	90	0.00	30.102 
04:40	35.9	35.9	35.9	85	31.8	0	0	---	0.00	30.102 
04:45	36.0	36.0	36.0	85	31.9	0	1	90	0.00	30.090 
04:50	36.0	36.0	36.0	85	31.9	0	1	90	0.00	30.090 
04:55	36.0	36.0	36.0	85	31.9	0	1	90	0.00	30.090 
05:00	36.0	36.0	36.0	85	31.9	0	2	90	0.00	30.089 
05:05	36.2	36.2	36.2	85	32.1	0	2	90	0.00	30.089 
05:10	36.2	36.2	36.2	85	32.1	1	4	90	0.00	30.089 
05:15	36.3	36.3	36.3	84	31.9	1	3	90	0.00	30.083 
05:20	36.5	36.5	36.5	84	32.1	0	3	90	0.00	30.083 
05:25	36.5	36.5	36.5	84	32.1	1	4	90	0.00	30.083 
05:30	36.6	36.6	36.6	83	31.9	1	5	90	0.00	30.087 
05:35	36.8	36.8	36.8	83	32.1	0	2	45	0.00	30.087 
05:40	36.8	36.8	36.8	83	32.1	1	3	90	0.00	30.087 
05:45	36.9	36.9	36.9	83	32.2	1	3	90	0.00	30.088 
05:50	36.9	36.9	36.9	82	31.9	1	4	90	0.00	30.088 
05:55	37.0	37.0	37.0	82	32.0	0	3	22	0.00	30.088 
06:00	37.0	37.0	37.0	82	32.0	0	2	22	0.00	30.088 
06:05	37.0	37.0	37.0	82	32.0	1	2	22	0.00	30.088 
06:10	37.0	37.0	37.0	82	32.0	0	2	45	0.00	30.088 
06:15	37.0	37.0	37.0	82	32.0	0	2	45	0.00	30.092 
06:20	37.0	37.0	37.0	82	32.0	1	3	45	0.00	30.092 
06:25	37.0	37.0	37.0	82	32.0	1	4	112	0.00	30.092 
06:30	37.0	37.0	37.0	82	32.0	0	2	112	0.00	30.095 
06:35	36.9	36.9	36.9	82	31.9	0	3	112	0.00	30.095 
06:40	36.9	36.9	36.9	83	32.2	0	2	338	0.00	30.095 
06:45	36.9	36.9	36.9	83	32.2	0	2	248	0.00	30.101 
06:50	37.0	37.0	37.0	83	32.3	0	4	248	0.00	30.101 
06:55	37.0	37.0	37.0	83	32.3	1	4	135	0.00	30.101 
07:00	37.0	37.0	37.0	83	32.3	1	3	112	0.00	30.092 
07:05	37.0	37.0	37.0	83	32.3	1	4	45	0.00	30.092 
07:10	37.0	37.0	37.0	82	32.0	1	4	112	0.00	30.092 
07:15	37.0	37.0	37.0	82	32.0	1	4	45	0.00	30.092 
07:20	37.0	37.0	37.0	82	32.0	1	5	90	0.00	30.092 
07:25	37.0	37.0	37.0	82	32.0	1	3	68	0.00	30.092 
07:30	37.0	37.0	37.0	82	32.0	1	4	90	0.00	30.097 
07:35	37.0	37.0	37.0	82	32.0	0	2	68	0.00	30.097 
07:40	37.0	37.0	37.0	82	32.0	1	4	68	0.00	30.097 
07:45	37.0	37.0	37.0	82	32.0	1	4	90	0.00	30.105 
07:50	37.0	37.0	37.0	82	32.0	0	2	90	0.00	30.105 
07:55	37.0	37.0	37.0	82	32.0	0	3	68	0.00	30.105 
08:00	37.0	37.0	37.0	83	32.3	0	1	68	0.00	30.111 
08:05	37.0	37.0	37.0	83	32.3	0	1	68	0.00	30.111 
08:10	37.0	37.0	37.0	83	32.3	0	1	68	0.00	30.111 
08:15	37.0	37.0	37.0	83	32.3	0	3	90	0.00	30.120 
08:20	37.0	37.0	37.0	83	32.3	0	1	45	0.00	30.120 
08:25	37.0	37.0	37.0	83	32.3	0	5	112	0.00	30.120 
08:30	37.0	37.0	37.0	83	32.3	0	3	45	0.00	30.126 
08:35	36.9	36.9	36.9	83	32.2	0	3	45	0.00	30.126 
08:40	36.9	36.9	36.9	83	32.2	0	3	45	0.00	30.126 
08:45	36.9	36.9	36.9	83	32.2	1	3	68	0.00	30.119 
08:50	36.9	36.9	36.9	84	32.5	1	3	45	0.00	30.119 
08:55	36.9	36.9	36.9	84	32.5	0	5	112	0.00	30.119 
09:00	36.8	36.8	36.8	84	32.4	0	3	338	0.00	30.115 
09:05	36.8	36.8	36.8	84	32.4	0	3	0	0.00	30.115 
09:10	36.6	36.6	36.6	85	32.5	2	5	45	0.00	30.115 
09:15	36.6	36.6	36.6	85	32.5	1	6	90	0.00	30.116 
09:20	36.5	36.5	36.5	85	32.4	1	5	90	0.00	30.116 
09:25	36.5	36.5	36.5	85	32.4	1	4	90	0.00	30.116 
09:30	36.3	36.3	36.3	85	32.2	1	5	68	0.00	30.119 
09:35	36.3	36.3	36.3	85	32.2	1	4	90	0.00	30.119 
09:40	36.2	36.2	36.2	85	32.1	1	7	112	0.00	30.119 
09:45	36.2	36.2	36.2	85	32.1	1	5	112	0.00	30.115 
09:50	36.2	36.2	36.2	86	32.4	2	7	112	0.00	30.115 
09:55	36.0	36.0	36.0	86	32.2	1	4	338	0.00	30.115 
10:00	36.0	36.0	36.0	86	32.2	1	4	90	0.00	30.122 
10:05	36.0	36.0	36.0	86	32.2	1	7	90	0.00	30.122 
10:10	36.0	36.0	36.0	86	32.2	1	7	112	0.00	30.122 
10:15	35.9	35.9	35.9	86	32.1	2	9	112	0.00	30.117 
10:20	35.6	35.6	35.6	86	31.8	2	6	90	0.00	30.117 
10:25	35.3	35.3	35.3	86	31.5	2	11	112	0.01	30.117 
10:30	35.0	35.0	35.0	87	31.5	2	10	112	0.00	30.120 
10:35	34.7	34.7	34.7	87	31.2	2	10	90	0.00	30.120 
10:40	34.4	34.4	34.4	88	31.2	1	4	90	0.00	30.120 
10:45	34.1	34.1	34.1	88	30.9	1	9	68	0.00	30.126 
10:50	33.8	33.8	33.8	89	30.9	1	4	112	0.00	30.126 
10:55	33.5	33.5	33.5	89	30.6	1	5	90	0.00	30.126 
11:00	33.4	33.4	33.4	90	30.8	1	5	112	0.00	30.125 
11:05	33.2	33.2	33.2	90	30.6	1	4	135	0.00	30.125 
11:10	33.2	33.2	33.2	90	30.6	0	2	112	0.00	30.125 
11:15	33.1	33.1	33.1	91	30.8	1	3	112	0.00	30.124 
11:20	33.1	33.1	33.1	91	30.8	1	3	112	0.00	30.124 
11:25	33.1	33.1	33.1	91	30.8	1	3	112	0.00	30.124 
11:30	33.1	33.1	33.1	92	31.0	1	4	112	0.00	30.127 
11:35	33.1	33.1	33.1	92	31.0	1	3	68	0.00	30.127 
11:40	33.1	33.1	33.1	92	31.0	2	6	112	0.00	30.127 
11:45	33.1	33.1	33.1	92	31.0	1	3	112	0.00	30.126 
11:50	33.1	33.1	33.1	92	31.0	1	5	112	0.00	30.126 
11:55	33.1	33.1	33.1	92	31.0	1	3	112	0.00	30.126 
12:00	33.1	33.1	33.1	92	31.0	1	3	112	0.00	30.118 
12:05	33.1	33.1	33.1	92	31.0	1	3	90	0.01	30.118 
12:10	33.1	33.1	33.1	92	31.0	1	5	90	0.00	30.118 
12:15	33.1	33.1	33.1	92	31.0	1	5	90	0.01	30.114 
12:20	33.1	33.1	33.1	93	31.3	1	5	90	0.00	30.114 
12:25	33.2	33.2	33.2	93	31.4	1	7	90	0.01	30.114 
12:30	33.2	33.2	33.2	93	31.4	1	6	90	0.00	30.101 
12:35	33.2	33.2	33.2	93	31.4	1	6	90	0.01	30.101 
12:40	33.4	33.4	33.4	93	31.6	1	4	90	0.01	30.101 
12:45	33.4	33.4	33.4	93	31.6	2	6	68	0.00	30.098 
12:50	33.5	33.5	33.5	93	31.7	1	4	68	0.01	30.098 
12:55	33.5	33.5	33.5	93	31.7	1	5	90	0.00	30.098 
13:00	33.7	33.7	33.7	93	31.9	1	5	90	0.01	30.089 
13:05	33.8	33.8	33.8	93	32.0	2	6	135	0.01	30.089 
13:10	33.8	33.8	33.8	93	32.0	2	7	112	0.00	30.089 
13:15	34.0	34.0	34.0	93	32.2	2	6	90	0.01	30.084 
13:20	34.0	34.0	34.0	93	32.2	1	6	112	0.00	30.084 
13:25	34.1	34.1	34.1	93	32.3	1	4	68	0.01	30.084 
13:30	34.3	34.3	34.3	92	32.2	1	4	45	0.00	30.081 
13:35	34.3	34.3	34.3	92	32.2	1	5	90	0.01	30.081 
13:40	34.3	34.3	34.3	92	32.2	2	6	22	0.00	30.081 
13:45	34.4	34.4	34.4	92	32.3	2	6	112	0.01	30.076 
13:50	34.4	34.4	34.4	92	32.3	1	5	68	0.00	30.076 
13:55	34.4	34.4	34.4	92	32.3	1	4	0	0.00	30.076 
14:00	34.4	34.4	34.4	92	32.3	1	5	112	0.01	30.074 
14:05	34.4	34.4	34.4	92	32.3	1	3	315	0.00	30.074 
14:10	34.4	34.4	34.4	91	32.0	1	4	338	0.00	30.074 
14:15	34.4	34.4	34.4	91	32.0	1	3	338	0.00	30.069 
14:20	34.6	34.6	34.6	91	32.2	1	4	68	0.00	30.069 
14:25	34.6	34.6	34.6	91	32.2	1	3	338	0.00	30.069 
14:30	34.7	34.7	34.7	91	32.3	1	3	338	0.00	30.065 
14:35	34.9	34.9	34.9	91	32.5	1	3	338	0.01	30.065 
14:40	35.0	35.0	35.0	91	32.6	1	4	338	0.00	30.065 
14:45	35.2	35.2	35.2	91	32.8	1	7	0	0.00	30.059 
14:50	35.5	35.5	35.5	90	32.9	1	5	292	0.00	30.059 
14:55	35.8	35.8	35.8	89	32.9	2	6	338	0.00	30.059 
15:00	36.0	36.0	36.0	88	32.8	1	4	338	0.00	30.057 
15:05	36.2	36.2	36.2	88	33.0	2	9	338	0.00	30.057 
15:10	36.5	36.5	36.5	86	32.7	1	4	338	0.01	30.057 
15:15	36.6	36.6	36.6	85	32.5	1	5	315	0.00	30.051 
15:20	36.9	36.9	36.9	84	32.5	2	6	338	0.00	30.051 
15:25	36.9	36.9	36.9	82	31.9	3	7	338	0.00	30.051 
15:30	37.0	37.0	37.0	81	31.7	3	9	338	0.00	30.047 
15:35	37.2	37.2	37.2	80	31.6	2	10	338	0.00	30.047 
15:40	37.2	37.2	37.2	80	31.6	1	5	68	0.00	30.047 
15:45	37.2	37.2	37.2	79	31.3	1	4	338	0.00	30.048 
15:50	37.2	37.2	37.2	78	31.0	2	9	338	0.00	30.048 
15:55	37.3	37.3	37.3	78	31.1	1	6	338	0.00	30.048 
16:00	37.3	37.3	37.3	77	30.8	2	9	338	0.00	30.046 
16:05	37.5	37.5	37.5	76	30.6	2	9	292	0.01	30.046 
16:10	37.6	37.6	37.6	74	30.1	2	7	338	0.00	30.046 
16:15	37.6	37.6	37.6	74	30.1	2	9	338	0.00	30.048 
16:20	37.6	37.6	37.6	74	30.1	2	6	338	0.00	30.048 
16:25	37.8	37.8	37.8	74	30.3	2	9	338	0.00	30.048 
16:30	37.9	37.9	37.9	73	30.0	2	7	338	0.00	30.049 
16:35	37.8	37.8	37.8	72	29.6	2	12	338	0.00	30.049 
16:40	37.9	37.9	37.9	71	29.4	2	10	338	0.00	30.049 
16:45	37.9	37.9	37.9	72	29.7	2	7	338	0.00	30.054 
16:50	38.2	38.2	38.2	70	29.3	2	6	338	0.00	30.054 
16:55	38.3	38.3	38.3	70	29.4	2	10	338	0.00	30.054 
17:00	38.5	38.5	38.5	70	29.6	2	7	338	0.00	30.060 
17:05	38.5	38.5	38.5	68	28.9	2	5	22	0.00	30.060 
17:10	38.8	38.8	38.8	69	29.5	2	6	338	0.00	30.060 
17:15	38.9	38.9	38.9	67	28.9	2	7	338	0.00	30.058 
17:20	39.2	39.2	39.2	67	29.2	2	7	292	0.00	30.058 
17:25	39.2	39.2	39.2	67	29.2	2	11	338	0.00	30.058 
17:30	39.2	39.2	39.2	66	28.8	2	9	338	0.00	30.058 
17:35	39.2	39.2	39.2	66	28.8	2	5	338	0.00	30.058 
17:40	39.2	39.2	39.2	68	29.5	1	4	338	0.00	30.058 
17:45	39.2	39.2	39.2	67	29.2	2	10	0	0.00	30.063 
17:50	39.2	39.2	39.2	66	28.8	2	7	338	0.00	30.063 
17:55	39.1	39.1	39.1	66	28.7	3	9	0	0.00	30.063 
18:00	39.1	39.1	39.1	66	28.7	2	6	135	0.00	30.071 
18:05	38.9	38.9	38.9	67	28.9	2	7	0	0.00	30.071 
18:10	38.9	38.9	38.9	68	29.3	2	6	338	0.00	30.071 
18:15	38.8	38.8	38.8	68	29.2	2	9	338	0.00	30.076 
18:20	38.8	38.8	38.8	69	29.5	2	6	0	0.00	30.076 
18:25	38.6	38.6	38.6	68	29.0	3	7	338	0.00	30.076 
18:30	38.5	38.5	38.5	68	28.9	2	9	338	0.00	30.085 
18:35	38.5	38.5	38.5	69	29.2	1	6	22	0.00	30.085 
18:40	38.5	38.5	38.5	69	29.2	1	5	338	0.00	30.085 
18:45	38.5	38.5	38.5	69	29.2	1	6	68	0.00	30.090 
18:50	38.5	38.5	38.5	69	29.2	1	9	90	0.00	30.090 
18:55	38.2	38.2	38.2	69	28.9	2	6	112	0.00	30.090 
19:00	38.0	38.0	38.0	69	28.7	1	5	112	0.00	30.093 
19:05	38.0	38.0	38.0	70	29.1	1	3	68	0.00	30.093 
19:10	37.9	37.9	37.9	70	29.0	0	2	68	0.00	30.093 
19:15	37.9	37.9	37.9	70	29.0	1	4	68	0.00	30.097 
19:20	37.8	37.8	37.8	70	28.9	1	5	315	0.00	30.097 
19:25	37.8	37.8	37.8	70	28.9	0	2	68	0.00	30.097 
19:30	37.8	37.8	37.8	70	28.9	0	3	45	0.00	30.106 
19:35	37.8	37.8	37.8	70	28.9	0	3	45	0.00	30.106 
19:40	37.8	37.8	37.8	70	28.9	0	3	45	0.00	30.106 
19:45	37.6	37.6	37.6	70	28.7	0	2	45	0.00	30.110 
19:50	37.5	37.5	37.5	70	28.6	0	3	45	0.00	30.110 
19:55	37.5	37.5	37.5	70	28.6	0	2	45	0.00	30.110 
20:00	37.3	37.3	37.3	70	28.4	0	2	22	0.00	30.117 
20:05	37.2	37.2	37.2	71	28.7	0	1	22	0.00	30.117 
20:10	37.0	37.0	37.0	71	28.5	0	2	22	0.00	30.117 
20:15	36.9	36.9	36.9	70	28.0	1	5	22	0.00	30.124 
20:20	36.8	36.8	36.8	70	27.9	1	3	270	0.00	30.124 
20:25	36.8	36.8	36.8	69	27.6	1	5	270	0.00	30.124 
20:30	36.6	36.6	36.6	69	27.4	2	4	270	0.00	30.127 
20:35	36.6	36.6	36.6	69	27.4	2	6	315	0.00	30.127 
20:40	36.3	36.3	36.3	69	27.1	2	3	315	0.00	30.127 
20:45	36.2	36.2	36.2	69	27.0	1	4	315	0.00	30.133 
20:50	36.0	36.0	36.0	69	26.8	2	6	315	0.00	30.133 
20:55	35.9	35.9	35.9	69	26.7	1	4	338	0.00	30.133 
21:00	35.8	35.8	35.8	69	26.6	1	4	338	0.00	30.141 
21:05	35.6	35.6	35.6	69	26.4	1	4	0	0.00	30.141 
21:10	35.5	35.5	35.5	70	26.7	1	3	338	0.00	30.141 
21:15	35.3	35.3	35.3	70	26.5	1	6	315	0.00	30.150 
21:20	35.2	35.2	35.2	70	26.4	1	6	315	0.00	30.150 
21:25	35.0	35.0	35.0	70	26.2	1	6	315	0.00	30.150 
21:30	34.9	34.9	34.9	70	26.1	1	4	338	0.00	30.158 
21:35	34.7	34.7	34.7	70	25.9	1	3	68	0.00	30.158 
21:40	34.6	34.6	34.6	70	25.8	1	5	22	0.00	30.158 
21:45	34.6	34.6	34.6	70	25.8	2	6	338	0.00	30.160 
21:50	34.4	34.4	34.4	70	25.6	1	4	292	0.00	30.160 
21:55	34.3	34.3	34.3	70	25.5	1	3	292	0.00	30.160 
22:00	34.0	34.0	34.0	70	25.3	1	3	292	0.00	30.164 
22:05	33.8	33.8	33.8	71	25.4	0	2	292	0.00	30.164 
22:10	33.7	33.7	33.7	71	25.3	1	4	292	0.00	30.164 
22:15	33.5	33.5	33.5	71	25.1	1	3	292	0.00	30.173 
22:20	33.4	33.4	33.4	71	25.0	1	3	292	0.00	30.173 
22:25	33.4	33.4	33.4	71	25.0	1	4	292	0.00	30.173 
22:30	33.2	33.2	33.2	72	25.2	2	5	292	0.00	30.175 
22:35	33.1	33.1	33.1	72	25.1	1	3	292	0.00	30.175 
22:40	32.9	32.9	32.9	72	24.9	1	3	292	0.00	30.175 
22:45	32.8	32.8	32.8	72	24.8	1	3	292	0.00	30.175 
22:50	32.7	32.7	32.7	72	24.7	1	3	292	0.00	30.175 
22:55	32.7	32.7	32.7	73	25.0	1	4	292	0.00	30.175 
23:00	32.7	32.7	32.7	73	25.0	1	4	315	0.00	30.173 
23:05	32.5	32.5	32.5	73	24.8	1	3	315	0.00	30.173 
23:10	32.4	32.4	32.4	73	24.7	1	3	315	0.00	30.173 
23:15	32.2	32.2	32.2	73	24.5	0	2	315	0.00	30.179 
23:20	32.1	32.1	32.1	73	24.4	0	1	315	0.00	30.179 
23:25	31.8	31.8	31.8	74	24.5	0	2	315	0.00	30.179 
23:30	31.6	31.6	31.6	74	24.3	0	1	315	0.00	30.180 
23:35	31.5	31.5	31.5	74	24.2	0	3	315	0.00	30.180 
23:40	31.5	31.5	31.5	74	24.2	0	1	315	0.00	30.180 
23:45	31.3	31.3	31.3	74	24.0	0	1	315	0.00	30.180 
23:50	31.2	31.2	31.2	75	24.2	0	1	315	0.00	30.180 
23:55	30.9	30.9	30.9	75	23.9	0	0	---	0.00	30.180 

CoCoRaHS
IN-AL-39
A2 Web Hosting
Creative Commons License
GoDaddy
search engine by freefind advanced

loaded 2018-11-17 06:58:46 • last modified 2010-11-18 10:43:29
Privacy PolicyDisclaimer
• wx.awcolley.com is powered by PmWiki v.2002016 •
• all content (unless otherwise noted) © 2018 A W Colley